Time;durP1;ratioP1;P1;durP2;ratioP2;P2;SDS_P1;SDS_P2;PMS_P1;PMS_P2;Temp;Humidity;BMP_temperature;BMP_pressure;BME280_temperature;BME280_humidity;BME280_pressure;Samples;Min_cycle;Max_cycle;Signal;HPM_P1;HPM_P2
2022/01/11 00:00:28;;;;;;;13.70;11.03;;;;;;;0.15;82.25;101037.51;1744412;81;20948;-74
2022/01/11 00:02:57;;;;;;;13.48;10.60;;;;;;;0.16;82.18;101028.92;1751682;81;21018;-72
2022/01/11 00:05:38;;;;;;;12.88;11.30;;;;;;;0.17;82.17;101037.06;1755777;82;20904;-74
2022/01/11 00:08:02;;;;;;;15.38;11.05;;;;;;;0.18;82.18;101031.05;1755104;79;20960;-74
2022/01/11 00:10:38;;;;;;;14.28;10.93;;;;;;;0.20;82.06;101037.05;1755816;78;21162;-73
2022/01/11 00:13:01;;;;;;;13.15;10.75;;;;;;;0.22;82.09;101041.32;1754546;79;20922;-73
2022/01/11 00:15:30;;;;;;;13.48;11.10;;;;;;;0.24;82.13;101038.30;1755690;78;20975;-74
2022/01/11 00:17:57;;;;;;;17.48;13.25;;;;;;;0.27;82.16;101041.70;1755759;81;21031;-73
2022/01/11 00:20:27;;;;;;;14.60;10.48;;;;;;;0.29;82.03;101034.81;1755357;81;20841;-74
2022/01/11 00:25:34;;;;;;;14.68;11.95;;;;;;;0.33;81.85;101047.22;1755622;79;20865;-75
2022/01/11 00:28:00;;;;;;;13.13;11.38;;;;;;;0.33;81.74;101042.91;1755629;81;20921;-73
2022/01/11 00:30:32;;;;;;;14.68;10.68;;;;;;;0.34;81.75;101043.78;1735546;82;20999;-73
2022/01/11 00:33:00;;;;;;;13.93;11.10;;;;;;;0.35;81.49;101045.48;1753075;81;20960;-73
2022/01/11 00:35:29;;;;;;;14.75;11.20;;;;;;;0.29;81.35;101048.99;1752873;81;21475;-74
2022/01/11 00:37:55;;;;;;;17.85;12.23;;;;;;;0.29;81.49;101051.98;1752760;80;20865;-75
2022/01/11 00:40:22;;;;;;;13.90;10.03;;;;;;;0.27;81.45;101044.28;1752866;82;20936;-74
2022/01/11 00:42:49;;;;;;;17.17;12.80;;;;;;;0.30;81.50;101052.42;1752913;81;20971;-75
2022/01/11 00:45:16;;;;;;;13.48;10.82;;;;;;;0.30;81.49;101049.40;1753183;80;20932;-74
2022/01/11 00:47:42;;;;;;;16.45;11.75;;;;;;;0.33;81.48;101049.35;1753760;82;21495;-74
2022/01/11 00:50:09;;;;;;;13.30;10.30;;;;;;;0.32;81.25;101055.84;1753543;82;20892;-76
2022/01/11 00:52:37;;;;;;;12.65;10.32;;;;;;;0.32;81.17;101053.27;1753771;82;20951;-75
2022/01/11 00:55:05;;;;;;;13.30;10.78;;;;;;;0.33;81.18;101060.11;1752878;81;20916;-75
2022/01/11 00:57:34;;;;;;;14.78;11.22;;;;;;;0.34;81.01;101062.69;1752548;82;21415;-74
2022/01/11 01:00:01;;;;;;;13.78;11.35;;;;;;;0.35;80.77;101066.11;1752549;82;21084;-75
2022/01/11 01:02:27;;;;;;;16.20;11.40;;;;;;;0.33;80.75;101072.57;1755735;80;20948;-75
2022/01/11 01:04:54;;;;;;;14.70;11.08;;;;;;;0.35;80.85;101075.14;1757659;80;20857;-76
2022/01/11 01:07:21;;;;;;;16.23;11.70;;;;;;;0.38;80.92;101077.27;1758022;81;20904;-76
2022/01/11 01:10:02;;;;;;;14.43;11.75;;;;;;;0.47;81.02;101075.02;1757925;81;21418;-75
2022/01/11 01:12:20;;;;;;;18.62;13.58;;;;;;;0.53;80.83;101076.22;1756865;81;21133;-75
2022/01/11 01:14:47;;;;;;;18.12;12.88;;;;;;;0.55;80.55;101082.22;1757578;80;20865;-75
2022/01/11 01:17:16;;;;;;;20.80;14.10;;;;;;;0.55;80.42;101083.95;1757765;81;21424;-75
2022/01/11 01:19:42;;;;;;;18.40;12.82;;;;;;;0.56;80.38;101083.95;1757606;81;20937;-75
2022/01/11 01:22:09;;;;;;;17.77;12.53;;;;;;;0.56;80.22;101081.81;1757844;80;20884;-74
2022/01/11 01:24:36;;;;;;;15.35;12.55;;;;;;;0.52;80.06;101080.98;1757691;81;21145;-74
2022/01/11 01:27:04;;;;;;;17.42;13.55;;;;;;;0.51;80.20;101077.12;1757726;81;20931;-74
2022/01/11 01:29:31;;;;;;;16.80;13.43;;;;;;;0.50;80.17;101087.87;1757844;81;20888;-73
2022/01/11 01:32:00;;;;;;;17.35;13.00;;;;;;;0.49;80.06;101082.31;1757728;80;20928;-72
2022/01/11 01:34:27;;;;;;;23.07;13.00;;;;;;;0.51;80.07;101087.44;1757862;81;21030;-74
2022/01/11 01:36:53;;;;;;;18.15;12.78;;;;;;;0.51;80.06;101081.87;1757754;81;21459;-73
2022/01/11 01:39:22;;;;;;;18.87;13.58;;;;;;;0.49;79.99;101090.47;1757773;81;20948;-73
2022/01/11 01:41:49;;;;;;;20.08;13.95;;;;;;;0.51;80.11;101093.89;1757889;81;20991;-73
2022/01/11 01:44:16;;;;;;;16.40;12.80;;;;;;;0.53;80.09;101088.28;1757672;81;21456;-74
2022/01/11 01:46:43;;;;;;;19.85;14.40;;;;;;;0.54;79.94;101090.85;1757865;81;21015;-73
2022/01/11 01:49:16;;;;;;;18.52;12.35;;;;;;;0.55;79.82;101089.97;1757741;81;21048;-72
2022/01/11 01:51:39;;;;;;;20.10;14.15;;;;;;;0.55;79.71;101083.95;1757674;81;21031;-74
2022/01/11 01:54:06;;;;;;;18.42;12.23;;;;;;;0.53;79.73;101083.96;1757758;81;20892;-73
2022/01/11 01:56:33;;;;;;;16.62;12.85;;;;;;;0.52;79.56;101090.45;1740989;81;20864;-73
2022/01/11 01:59:01;;;;;;;18.40;12.47;;;;;;;0.51;79.66;101089.61;1757714;81;21038;-73
2022/01/11 02:01:32;;;;;;;19.90;13.32;;;;;;;0.53;79.59;101086.98;1757712;81;20963;-72
2022/01/11 02:03:58;;;;;;;17.95;12.23;;;;;;;0.53;79.37;101089.56;1757775;81;20940;-72
2022/01/11 02:06:25;;;;;;;17.45;11.60;;;;;;;0.51;79.29;101090.02;1758142;81;20979;-73
2022/01/11 02:08:52;;;;;;;20.25;13.58;;;;;;;0.46;78.99;101081.48;1757829;81;21026;-73
2022/01/11 02:11:21;;;;;;;24.15;13.70;;;;;;;0.40;79.01;101091.00;1741280;81;20956;-74
2022/01/11 02:13:50;;;;;;;18.23;12.85;;;;;;;0.35;79.09;101079.86;1758277;80;21080;-73
2022/01/11 02:16:20;;;;;;;19.27;13.43;;;;;;;0.35;79.06;101086.75;1786261;78;20935;-74
2022/01/11 02:18:46;;;;;;;19.25;12.82;;;;;;;0.33;79.04;101080.30;1789651;80;20967;-73
2022/01/11 02:21:15;;;;;;;16.00;11.93;;;;;;;0.31;78.88;101083.37;1789450;80;20919;-75
2022/01/11 02:23:42;;;;;;;16.12;11.48;;;;;;;0.29;78.91;101084.22;1789574;80;20903;-73
2022/01/11 02:26:09;;;;;;;14.90;11.03;;;;;;;0.29;78.91;101085.11;1789671;80;21413;-73
2022/01/11 02:28:37;;;;;;;18.37;11.93;;;;;;;0.28;78.94;101091.56;1789494;78;21014;-73
2022/01/11 02:31:07;;;;;;;18.98;13.08;;;;;;;0.28;78.78;101089.83;1763202;80;20883;-74
2022/01/11 02:33:41;;;;;;;18.20;12.45;;;;;;;0.25;78.73;101086.00;1789990;80;20836;-75
2022/01/11 02:36:25;;;;;;;15.30;10.85;;;;;;;0.25;78.63;101090.31;1788829;80;20943;-75
2022/01/11 02:38:53;;;;;;;15.50;11.65;;;;;;;0.23;78.27;101089.47;1762846;80;21958;-75
2022/01/11 02:41:20;;;;;;;20.48;13.22;;;;;;;0.14;78.19;101090.41;1789595;80;20888;-75
2022/01/11 02:43:48;;;;;;;15.38;11.35;;;;;;;0.13;78.42;101089.97;1789623;78;20935;-75
2022/01/11 02:46:20;;;;;;;16.97;12.45;;;;;;;0.12;78.27;101090.86;1789395;80;21333;-76
2022/01/11 02:48:49;;;;;;;17.62;12.93;;;;;;;0.11;78.20;101085.27;1789963;80;21322;-75
2022/01/11 02:51:19;;;;;;;13.35;10.68;;;;;;;0.07;78.27;101079.30;1789643;79;21155;-74
2022/01/11 02:53:51;;;;;;;17.05;13.28;;;;;;;0.06;78.38;101081.88;1790021;80;21443;-74
2022/01/11 02:56:19;;;;;;;16.35;12.28;;;;;;;0.02;78.43;101082.33;1752436;82;20951;-75
2022/01/11 02:58:46;;;;;;;16.85;11.68;;;;;;;0.01;78.61;101081.08;1733680;81;21367;-74
2022/01/11 03:01:13;;;;;;;14.65;11.40;;;;;;;0.05;78.67;101085.34;1752157;82;20933;-75
2022/01/11 03:03:39;;;;;;;16.25;11.53;;;;;;;0.03;78.73;101081.48;1730205;82;21402;-74
2022/01/11 03:06:07;;;;;;;14.75;10.40;;;;;;;0.01;78.75;101073.34;1725294;81;20976;-75
2022/01/11 03:08:46;;;;;;;18.40;12.82;;;;;;;0.02;78.71;101084.06;1725387;83;20897;-74
2022/01/11 03:11:18;;;;;;;17.57;13.00;;;;;;;-0.01;78.61;101083.66;1725308;82;21399;-75
2022/01/11 03:13:46;;;;;;;14.60;10.45;;;;;;;0.01;78.67;101085.80;1705124;83;20897;-74
2022/01/11 03:16:13;;;;;;;16.20;11.50;;;;;;;0.02;78.49;101091.36;1780688;80;21525;-74
2022/01/11 03:18:41;;;;;;;16.10;12.10;;;;;;;0.03;78.40;101087.08;1780713;80;21464;-75
2022/01/11 03:21:07;;;;;;;15.18;11.30;;;;;;;0.02;78.42;101083.63;1743693;82;20948;-73
2022/01/11 03:23:35;;;;;;;13.32;10.75;;;;;;;0.02;78.25;101082.77;1743614;81;21440;-75
2022/01/11 03:26:04;;;;;;;14.95;10.72;;;;;;;-0.02;78.17;101090.98;1717384;83;20862;-74
2022/01/11 03:28:32;;;;;;;12.18;8.93;;;;;;;-0.06;77.99;101090.15;1780501;80;21108;-74
2022/01/11 03:31:00;;;;;;;13.15;10.25;;;;;;;-0.10;77.59;101089.75;1780726;80;21413;-74
2022/01/11 03:33:28;;;;;;;11.18;8.83;;;;;;;-0.13;77.36;101097.96;1743652;82;21581;-75
2022/01/11 03:35:55;;;;;;;12.28;9.15;;;;;;;-0.21;76.99;101100.14;1717298;83;20909;-75
2022/01/11 03:38:22;;;;;;;13.28;10.03;;;;;;;-0.25;76.84;101108.76;1782103;79;20920;-76
2022/01/11 03:40:51;;;;;;;14.15;10.23;;;;;;;-0.26;77.05;101115.23;1780533;80;21153;-75
2022/01/11 03:43:21;;;;;;;11.45;8.85;;;;;;;-0.25;76.90;101107.47;1780951;80;20915;-76
2022/01/11 03:45:46;;;;;;;13.43;8.65;;;;;;;-0.24;76.83;101117.37;1780604;80;20873;-75
2022/01/11 03:48:15;;;;;;;13.43;8.73;;;;;;;-0.25;76.38;101107.91;1780636;80;20841;-75
2022/01/11 03:50:48;;;;;;;11.95;8.80;;;;;;;-0.29;76.35;101112.25;1780540;80;20868;-75
2022/01/11 03:53:15;;;;;;;12.28;10.08;;;;;;;-0.33;76.21;101105.41;1780028;80;21409;-73
2022/01/11 03:58:20;;;;;;;11.33;7.58;;;;;;;-0.38;76.31;101116.16;1781083;80;21381;-75
2022/01/11 04:00:46;;;;;;;10.75;7.35;;;;;;;-0.40;76.22;101115.34;1780624;80;21200;-75
2022/01/11 04:03:13;;;;;;;11.15;8.35;;;;;;;-0.44;75.81;101120.93;1780632;79;20888;-75
2022/01/11 04:05:42;;;;;;;12.13;8.63;;;;;;;-0.45;75.86;101126.94;1780842;79;21480;-75
2022/01/11 04:08:10;;;;;;;10.08;6.65;;;;;;;-0.46;75.81;101125.67;1780992;80;20924;-75
2022/01/11 04:10:37;;;;;;;9.10;7.00;;;;;;;-0.44;75.92;101127.38;1780674;80;21811;-74
2022/01/11 04:13:04;;;;;;;8.03;6.10;;;;;;;-0.40;75.55;101127.34;1780659;80;20908;-75
2022/01/11 04:15:31;;;;;;;9.45;6.97;;;;;;;-0.42;75.46;101132.09;1780635;80;20903;-74
2022/01/11 04:17:59;;;;;;;9.23;6.53;;;;;;;-0.42;75.13;101139.81;1780929;80;21469;-76
2022/01/11 04:20:26;;;;;;;10.35;7.08;;;;;;;-0.41;75.37;101136.80;1780712;80;20832;-76
2022/01/11 04:22:53;;;;;;;10.93;7.37;;;;;;;-0.38;75.26;101139.78;1780809;80;20915;-75
2022/01/11 04:25:20;;;;;;;10.30;7.70;;;;;;;-0.35;75.26;101139.78;1780782;80;20969;-76
2022/01/11 04:27:48;;;;;;;10.48;7.33;;;;;;;-0.31;75.21;101144.91;1780628;80;20943;-76
2022/01/11 04:30:15;;;;;;;8.60;6.67;;;;;;;-0.28;75.17;101143.58;1780634;80;21110;-74
2022/01/11 04:32:41;;;;;;;10.78;7.42;;;;;;;-0.26;74.96;101140.56;1780531;80;21465;-74
2022/01/11 04:35:12;;;;;;;11.35;8.68;;;;;;;-0.25;74.83;101140.12;1780675;79;21445;-76
2022/01/11 04:37:39;;;;;;;12.00;8.70;;;;;;;-0.27;74.68;101154.33;1780823;80;21342;-75
2022/01/11 04:40:08;;;;;;;12.73;9.25;;;;;;;-0.29;74.88;101149.62;1780592;80;21462;-76
2022/01/11 04:42:36;;;;;;;11.18;8.65;;;;;;;-0.30;74.87;101141.45;1780797;80;21926;-74
2022/01/11 04:45:03;;;;;;;13.58;9.33;;;;;;;-0.30;74.91;101153.05;1780448;80;20825;-74
2022/01/11 04:47:32;;;;;;;12.37;8.55;;;;;;;-0.32;74.90;101157.79;1780788;80;20956;-75
2022/01/11 04:49:59;;;;;;;13.93;9.98;;;;;;;-0.36;74.90;101155.66;1780794;80;20903;-75
2022/01/11 04:52:26;;;;;;;12.65;9.35;;;;;;;-0.39;74.83;101153.55;1780768;79;20829;-75
2022/01/11 04:54:52;;;;;;;14.05;9.53;;;;;;;-0.42;74.99;101155.28;1780924;80;21402;-74
2022/01/11 04:57:19;;;;;;;12.85;9.25;;;;;;;-0.44;75.24;101158.73;1780490;79;20888;-74
2022/01/11 04:59:46;;;;;;;12.00;8.85;;;;;;;-0.47;75.22;101163.88;1781122;79;21406;-75
2022/01/11 05:02:13;;;;;;;12.63;8.78;;;;;;;-0.52;75.36;101165.20;1780595;79;20931;-75
2022/01/11 05:04:40;;;;;;;12.53;8.08;;;;;;;-0.61;75.26;101162.67;1751975;80;20959;-76
2022/01/11 05:07:07;;;;;;;15.18;8.78;;;;;;;-0.68;75.43;101167.00;1781250;80;21122;-75
2022/01/11 05:09:34;;;;;;;15.10;9.58;;;;;;;-0.70;75.62;101168.73;1780871;79;20848;-74
2022/01/11 05:12:01;;;;;;;15.45;8.70;;;;;;;-0.70;75.72;101169.16;1750499;80;21465;-75
2022/01/11 05:14:28;;;;;;;14.15;9.10;;;;;;;-0.69;75.84;101167.00;1780952;79;21065;-75
2022/01/11 05:16:55;;;;;;;11.73;8.38;;;;;;;-0.67;75.62;101166.16;1780654;80;20920;-75
2022/01/11 05:19:23;;;;;;;14.78;8.88;;;;;;;-0.65;75.38;101171.28;1781051;80;21495;-75
2022/01/11 05:21:50;;;;;;;11.65;7.62;;;;;;;-0.67;75.26;101171.30;1780667;80;21504;-85
2022/01/11 05:24:17;;;;;;;11.63;7.33;;;;;;;-0.70;75.22;101170.02;1781192;80;20919;-82
2022/01/11 05:26:45;;;;;;;12.43;8.23;;;;;;;-0.72;75.15;101175.59;1780977;79;20876;-82
2022/01/11 05:29:12;;;;;;;13.03;7.92;;;;;;;-0.74;75.19;101178.61;1781217;80;20907;-82
2022/01/11 05:31:39;;;;;;;12.03;8.13;;;;;;;-0.76;75.18;101183.34;1780852;80;21113;-81
2022/01/11 05:34:06;;;;;;;10.13;7.75;;;;;;;-0.79;75.09;101177.78;1781123;80;21354;-79
2022/01/11 05:36:34;;;;;;;13.05;8.93;;;;;;;-0.88;75.12;101172.23;1780866;80;20844;-83
2022/01/11 05:39:00;;;;;;;9.00;7.15;;;;;;;-0.94;75.37;101183.84;1781163;80;20974;-82
2022/01/11 05:41:27;;;;;;;11.93;6.92;;;;;;;-0.96;75.45;101188.13;1780611;79;20974;-81
2022/01/11 05:43:54;;;;;;;13.80;8.60;;;;;;;-0.97;75.63;101186.88;1750847;80;21259;-82
2022/01/11 05:46:23;;;;;;;12.85;8.25;;;;;;;-1.06;75.47;101192.91;1780719;80;21437;-84
2022/01/11 05:48:50;;;;;;;12.75;8.38;;;;;;;-1.13;75.74;101201.51;1780718;80;20928;-82
2022/01/11 05:51:17;;;;;;;14.30;7.92;;;;;;;-1.17;75.90;101216.53;1780724;79;21485;-82
2022/01/11 05:53:44;;;;;;;11.05;7.22;;;;;;;-1.15;76.19;101216.09;1780776;79;20868;-78
2022/01/11 05:56:12;;;;;;;11.93;7.90;;;;;;;-1.11;76.23;101214.80;1780774;80;21511;-78
2022/01/11 05:58:39;;;;;;;11.88;7.83;;;;;;;-1.09;76.11;101213.48;1780865;80;20974;-77
2022/01/11 06:01:08;;;;;;;14.80;8.03;;;;;;;-1.07;76.06;101223.34;1780975;80;20915;-77
2022/01/11 06:03:35;;;;;;;13.25;7.90;;;;;;;-1.06;76.07;101215.63;1780740;79;21401;-79
2022/01/11 06:06:02;;;;;;;12.75;8.05;;;;;;;-1.06;75.92;101213.05;1780944;80;20833;-78
2022/01/11 06:08:30;;;;;;;10.70;7.75;;;;;;;-1.08;75.75;101223.78;1781528;80;21138;-80
2022/01/11 06:10:57;;;;;;;9.93;6.80;;;;;;;-1.10;75.86;101224.65;1780744;80;21435;-79
2022/01/11 06:13:24;;;;;;;11.18;6.80;;;;;;;-1.11;75.81;101222.52;1780636;80;20911;-79
2022/01/11 06:15:53;;;;;;;6.92;5.53;;;;;;;-1.13;75.67;101227.24;1780622;79;20939;-79
2022/01/11 06:18:22;;;;;;;8.78;6.40;;;;;;;-1.17;75.72;101233.25;1780871;80;20917;-79
2022/01/11 06:20:59;;;;;;;10.15;6.67;;;;;;;-1.20;75.73;101234.13;1744170;80;21146;-78
2022/01/11 06:23:26;;;;;;;12.65;7.75;;;;;;;-1.21;75.92;101233.67;1780935;80;20919;-77
2022/01/11 06:25:53;;;;;;;9.05;6.35;;;;;;;-1.19;75.83;101242.25;1780925;80;20903;-80
2022/01/11 06:28:20;;;;;;;9.88;6.33;;;;;;;-1.16;75.72;101238.81;1780938;80;20896;-77
2022/01/11 06:30:47;;;;;;;10.82;7.45;;;;;;;-1.16;75.58;101240.09;1782789;79;20955;-79
2022/01/11 06:33:14;;;;;;;5.85;4.83;;;;;;;-1.17;75.55;101245.69;1782653;80;21445;-80
2022/01/11 06:35:41;;;;;;;7.60;5.47;;;;;;;-1.23;75.01;101246.97;1780998;79;20958;-80
2022/01/11 06:38:08;;;;;;;7.28;4.47;;;;;;;-1.34;75.12;101255.13;1780700;80;20939;-79
2022/01/11 06:40:34;;;;;;;6.62;4.87;;;;;;;-1.42;75.12;101251.70;1780733;80;21468;-80
2022/01/11 06:43:02;;;;;;;6.40;5.62;;;;;;;-1.47;75.22;101256.44;1780859;80;20903;-77
2022/01/11 06:45:30;;;;;;;5.47;3.83;;;;;;;-1.52;75.16;101254.70;1780700;79;21107;-78
2022/01/11 06:47:59;;;;;;;5.92;4.72;;;;;;;-1.55;75.07;101268.44;1780864;80;21509;-77
2022/01/11 06:50:27;;;;;;;5.33;4.28;;;;;;;-1.59;74.99;101267.14;1780703;80;20891;-79
2022/01/11 06:52:54;;;;;;;5.40;4.62;;;;;;;-1.64;74.80;101276.14;1780618;80;20940;-82
2022/01/11 06:55:21;;;;;;;6.12;4.25;;;;;;;-1.70;74.76;101268.42;1780569;80;21446;-79
2022/01/11 06:57:48;;;;;;;6.62;4.33;;;;;;;-1.72;74.68;101276.12;1780639;80;21126;-79
2022/01/11 07:00:16;;;;;;;10.45;5.90;;;;;;;-1.76;74.65;101265.84;1780612;80;21000;-79
2022/01/11 07:02:49;;;;;;;5.83;4.40;;;;;;;-1.81;74.72;101263.70;1780594;80;20923;-79
2022/01/11 07:05:33;;;;;;;6.20;4.85;;;;;;;-1.84;75.04;101276.12;1780700;80;20920;-79
2022/01/11 07:08:00;;;;;;;7.50;5.15;;;;;;;-1.88;75.11;101272.67;1780678;79;20943;-80
2022/01/11 07:10:27;;;;;;;8.73;4.37;;;;;;;-1.89;75.36;101271.37;1780654;79;21117;-80
2022/01/11 07:12:57;;;;;;;5.75;4.95;;;;;;;-1.88;75.51;101267.97;1780745;80;20903;-80
2022/01/11 07:15:24;;;;;;;8.70;5.37;;;;;;;-1.85;75.67;101267.96;1780915;80;20876;-81
2022/01/11 07:17:53;;;;;;;6.53;4.45;;;;;;;-1.80;75.78;101264.99;1780788;79;21499;-76
2022/01/11 07:20:20;;;;;;;6.72;5.00;;;;;;;-1.72;75.76;101274.84;1779965;80;21035;-77
2022/01/11 07:22:47;;;;;;;8.28;5.53;;;;;;;-1.67;75.81;101278.30;1780578;80;21531;-77
2022/01/11 07:25:14;;;;;;;6.12;5.08;;;;;;;-1.62;75.67;101274.44;1780439;80;20896;-77
2022/01/11 07:27:44;;;;;;;6.58;5.05;;;;;;;-1.58;75.77;101264.98;1780636;80;20888;-79
2022/01/11 07:30:12;;;;;;;6.15;5.00;;;;;;;-1.55;75.58;101278.72;1780781;80;20947;-78
2022/01/11 07:32:41;;;;;;;7.00;5.00;;;;;;;-1.52;75.62;101284.29;1778911;80;20946;-76
2022/01/11 07:35:09;;;;;;;5.75;4.50;;;;;;;-1.49;75.44;101282.98;1780618;80;21574;-77
2022/01/11 07:37:38;;;;;;;8.03;5.10;;;;;;;-1.48;75.24;101289.87;1780621;80;20887;-79
2022/01/11 07:40:10;;;;;;;6.45;4.92;;;;;;;-1.48;75.21;101285.57;1780768;80;20932;-79
2022/01/11 07:42:37;;;;;;;5.87;5.12;;;;;;;-1.46;75.21;101295.88;1779420;80;20982;-77
2022/01/11 07:45:15;;;;;;;7.05;5.28;;;;;;;-1.47;75.19;101279.99;1776220;80;20857;-78
2022/01/11 07:47:42;;;;;;;7.42;5.05;;;;;;;-1.49;74.96;101285.16;1750554;80;22143;-79
2022/01/11 07:50:11;;;;;;;6.62;5.35;;;;;;;-1.51;74.96;101287.30;1780950;80;20880;-79
2022/01/11 07:52:38;;;;;;;7.42;4.45;;;;;;;-1.53;74.89;101290.30;1781035;79;21508;-78
2022/01/11 07:55:06;;;;;;;6.83;4.72;;;;;;;-1.53;75.03;101296.30;1780638;80;21010;-77
2022/01/11 07:57:34;;;;;;;6.03;4.87;;;;;;;-1.48;75.11;101293.29;1782364;80;21381;-77
2022/01/11 08:00:04;;;;;;;6.17;4.78;;;;;;;-1.47;74.99;101291.16;1751043;80;21156;-74
2022/01/11 08:02:35;;;;;;;7.42;4.83;;;;;;;-1.47;74.93;101289.88;1778960;79;20892;-75
2022/01/11 08:05:04;;;;;;;6.42;5.28;;;;;;;-1.51;74.64;101302.73;1784780;79;20876;-77
2022/01/11 08:07:33;;;;;;;7.75;5.33;;;;;;;-1.53;74.69;101301.87;1786532;80;21485;-76
2022/01/11 08:10:11;;;;;;;7.92;4.37;;;;;;;-1.54;74.59;101293.72;1786563;80;20998;-75
2022/01/11 08:12:39;;;;;;;6.45;5.05;;;;;;;-1.55;74.58;101304.87;1786513;80;21824;-78
2022/01/11 08:15:08;;;;;;;5.25;4.05;;;;;;;-1.58;74.37;101299.70;1786755;80;20832;-77
2022/01/11 08:17:35;;;;;;;4.58;3.52;;;;;;;-1.60;74.15;101305.27;1786541;79;20901;-79
2022/01/11 08:20:03;;;;;;;6.10;4.12;;;;;;;-1.62;74.06;101296.30;1786947;80;20959;-76
2022/01/11 08:22:30;;;;;;;6.70;4.15;;;;;;;-1.67;73.80;101286.00;1787570;80;20927;-75
2022/01/11 08:24:57;;;;;;;5.83;4.22;;;;;;;-1.72;73.52;101298.41;1788515;80;21449;-76
2022/01/11 08:27:24;;;;;;;5.15;3.90;;;;;;;-1.79;73.67;101291.55;1787320;80;21290;-78
2022/01/11 08:29:52;;;;;;;5.78;3.62;;;;;;;-1.82;73.77;101296.66;1786797;80;20947;-77
2022/01/11 08:32:20;;;;;;;4.95;4.22;;;;;;;-1.83;73.94;101291.11;1786300;79;20962;-76
2022/01/11 08:34:48;;;;;;;5.47;4.17;;;;;;;-1.85;73.90;101295.39;1786776;80;20938;-78
2022/01/11 08:37:14;;;;;;;5.83;4.72;;;;;;;-1.83;74.12;101298.39;1786417;80;21572;-77
2022/01/11 08:39:43;;;;;;;5.28;4.50;;;;;;;-1.81;74.14;101291.97;1758086;80;20872;-81
2022/01/11 08:42:14;;;;;;;5.97;4.70;;;;;;;-1.81;74.17;101282.54;1786863;80;20927;-80
2022/01/11 08:44:45;;;;;;;5.92;4.37;;;;;;;-1.76;74.30;101284.68;1786870;80;21383;-76
2022/01/11 08:47:14;;;;;;;6.30;4.62;;;;;;;-1.72;74.15;101278.69;1786936;80;21401;-76
2022/01/11 08:49:42;;;;;;;6.87;4.78;;;;;;;-1.69;74.03;101283.86;1786339;80;21204;-78
2022/01/11 08:52:09;;;;;;;8.03;4.42;;;;;;;-1.69;74.20;101271.00;1786573;80;21567;-75
2022/01/11 08:54:37;;;;;;;6.60;4.85;;;;;;;-1.70;74.06;101279.55;1786845;80;21370;-77
2022/01/11 08:57:06;;;;;;;7.20;5.30;;;;;;;-1.70;74.06;101273.13;1758110;80;20923;-78
2022/01/11 08:59:34;;;;;;;10.68;5.15;;;;;;;-1.67;74.21;101270.58;1786374;80;20958;-76
2022/01/11 09:02:03;;;;;;;5.70;4.90;;;;;;;-1.65;74.08;101264.13;1786854;79;21485;-80
2022/01/11 09:04:33;;;;;;;7.42;4.70;;;;;;;-1.62;74.17;101261.98;1786627;79;20860;-78
2022/01/11 09:07:01;;;;;;;5.10;4.30;;;;;;;-1.58;74.19;101267.16;1785436;80;21436;-78
2022/01/11 09:09:31;;;;;;;8.30;5.83;;;;;;;-1.56;73.98;101270.99;1786693;79;21389;-77
2022/01/11 09:11:57;;;;;;;7.50;4.92;;;;;;;-1.54;73.89;101269.28;1786389;80;21301;-77
2022/01/11 09:14:25;;;;;;;7.80;5.10;;;;;;;-1.58;73.48;101268.84;1786749;80;21101;-76
2022/01/11 09:17:36;;;;;;;9.60;5.30;;;;;;;-1.54;73.78;101264.14;1798569;79;22696;-76
2022/01/11 09:20:08;;;;;;;9.70;4.95;;;;;;;-1.52;73.92;101257.28;1758421;80;20872;-78
2022/01/11 09:22:36;;;;;;;7.83;5.15;;;;;;;-1.50;73.51;101249.98;1726153;82;21162;-77
2022/01/11 09:25:04;;;;;;;7.62;4.67;;;;;;;-1.52;73.09;101254.27;1725000;82;21046;-77
2022/01/11 09:27:32;;;;;;;6.08;5.00;;;;;;;-1.59;72.91;101248.71;1724203;83;20919;-76
2022/01/11 09:29:59;;;;;;;7.58;5.37;;;;;;;-1.64;72.99;101253.00;1724961;83;20998;-79
2022/01/11 09:32:27;;;;;;;8.20;5.58;;;;;;;-1.65;73.31;101247.85;1724787;83;20908;-76
2022/01/11 09:34:55;;;;;;;10.90;5.87;;;;;;;-1.64;73.45;101243.16;1724836;83;21160;-75
2022/01/11 09:37:24;;;;;;;9.93;5.95;;;;;;;-1.64;73.61;101251.72;1724438;83;20931;-76
2022/01/11 09:39:51;;;;;;;10.45;6.15;;;;;;;-1.64;73.58;101255.58;1724684;83;21367;-76
2022/01/11 09:42:20;;;;;;;7.12;6.42;;;;;;;-1.64;73.58;101248.30;1724633;81;20939;-74
2022/01/11 09:44:47;;;;;;;7.53;5.33;;;;;;;-1.64;73.27;101244.44;1724830;82;20891;-75
2022/01/11 09:47:15;;;;;;;8.23;5.22;;;;;;;-1.65;73.02;101242.70;1724677;83;22203;-75
2022/01/11 09:49:43;;;;;;;6.28;4.83;;;;;;;-1.64;73.19;101240.15;1724708;83;21333;-75
2022/01/11 09:52:11;;;;;;;7.20;4.65;;;;;;;-1.59;73.35;101237.14;1724516;83;20971;-74
2022/01/11 09:54:43;;;;;;;8.18;4.97;;;;;;;-1.52;73.19;101238.00;1724650;83;21034;-75
2022/01/11 09:57:11;;;;;;;8.60;5.28;;;;;;;-1.46;73.19;101235.42;1724941;82;20955;-79
2022/01/11 09:59:39;;;;;;;6.80;5.20;;;;;;;-1.40;73.06;101229.41;1724457;82;21158;-73
2022/01/11 10:02:20;;;;;;;8.60;4.92;;;;;;;-1.35;73.02;101243.14;1709790;83;20895;-73
2022/01/11 10:05:01;;;;;;;7.70;5.45;;;;;;;-1.31;73.09;101238.42;1724306;83;20924;-74
2022/01/11 10:07:40;;;;;;;9.55;5.90;;;;;;;-1.31;72.94;101239.27;1723639;83;21419;-74
2022/01/11 10:10:20;;;;;;;8.10;6.40;;;;;;;-1.31;73.22;101239.71;1724471;83;20864;-75
2022/01/11 10:12:53;;;;;;;9.03;6.30;;;;;;;-1.33;73.34;101240.14;1724895;83;21027;-74
2022/01/11 10:15:35;;;;;;;8.65;5.83;;;;;;;-1.30;73.50;101240.97;1724554;82;20859;-74
2022/01/11 10:18:07;;;;;;;6.78;4.60;;;;;;;-1.25;73.44;101246.96;1724106;83;20883;-74
2022/01/11 10:20:35;;;;;;;7.20;5.95;;;;;;;-1.23;73.46;101242.26;1724608;83;20899;-76
2022/01/11 10:23:07;;;;;;;10.78;6.87;;;;;;;-1.25;73.46;101245.67;1723951;82;20891;-75
2022/01/11 10:25:45;;;;;;;9.15;5.50;;;;;;;-1.23;73.45;101248.25;1724536;83;21180;-74
2022/01/11 10:28:12;;;;;;;6.35;5.10;;;;;;;;;;1724127;83;21468;-73
2022/01/11 10:30:41;;;;;;;9.53;5.33;;;;;;;-1.20;73.38;101239.67;1710620;84;20920;-74
2022/01/11 10:33:09;;;;;;;6.15;5.22;;;;;;;-1.20;73.22;101239.27;1710505;83;20924;-73
2022/01/11 10:35:43;;;;;;;7.55;5.25;;;;;;;-1.19;73.32;101236.25;1709195;83;21023;-74
2022/01/11 10:38:13;;;;;;;9.57;5.80;;;;;;;-1.18;73.39;101240.09;1709547;84;21281;-74
2022/01/11 10:40:44;;;;;;;7.00;4.67;;;;;;;-1.14;73.23;101239.67;1710423;84;20929;-74
2022/01/11 10:43:15;;;;;;;8.30;5.97;;;;;;;-1.14;73.12;101233.23;1710453;84;20889;-75
2022/01/11 10:45:51;;;;;;;9.10;5.70;;;;;;;-1.11;73.14;101234.09;1712005;84;21050;-74
2022/01/11 10:48:21;;;;;;;7.80;5.83;;;;;;;-1.12;72.86;101227.66;1710533;84;21272;-73
2022/01/11 10:50:54;;;;;;;9.30;5.47;;;;;;;-1.16;72.82;101231.94;1721835;83;21128;-74
2022/01/11 10:53:32;;;;;;;8.40;5.15;;;;;;;-1.17;72.93;101234.54;1721154;82;20956;-74
2022/01/11 10:56:00;;;;;;;8.58;6.05;;;;;;;-1.16;72.85;101237.52;1721319;82;20952;-74
2022/01/11 10:58:32;;;;;;;9.28;5.53;;;;;;;-1.15;72.90;101239.26;1721723;83;20908;-74
2022/01/11 11:00:56;;;;;;;7.78;5.78;;;;;;;-1.17;72.86;101231.53;1721558;83;20944;-74
2022/01/11 11:03:27;;;;;;;11.30;5.62;;;;;;;-1.20;72.69;101234.52;1721503;83;21006;-75
2022/01/11 11:06:05;;;;;;;8.48;5.78;;;;;;;-1.26;72.84;101239.27;1720241;83;21067;-77
2022/01/11 11:08:38;;;;;;;9.53;6.22;;;;;;;-1.25;72.90;101234.09;1721676;83;20912;-76
2022/01/11 11:11:12;;;;;;;10.40;6.40;;;;;;;-1.26;72.61;101244.41;1720070;82;21011;-75
2022/01/11 11:13:47;;;;;;;12.70;6.92;;;;;;;-1.29;72.62;101245.69;1695031;83;21461;-76
2022/01/11 11:16:29;;;;;;;11.30;7.55;;;;;;;-1.29;72.73;101241.42;1718855;83;20987;-76
2022/01/11 11:18:59;;;;;;;11.90;7.87;;;;;;;-1.29;72.77;101240.53;1708346;83;21110;-78
2022/01/11 11:21:32;;;;;;;14.45;8.70;;;;;;;-1.34;72.76;101243.55;1707232;84;20949;-77
2022/01/11 11:24:02;;;;;;;11.90;7.78;;;;;;;-1.34;72.90;101253.41;1708447;84;21031;-76
2022/01/11 11:26:37;;;;;;;16.32;9.38;;;;;;;-1.34;72.96;101255.98;1708654;84;21354;-76
2022/01/11 11:29:09;;;;;;;13.65;8.40;;;;;;;-1.34;72.91;101252.55;1708346;83;21553;-76
2022/01/11 11:31:36;;;;;;;14.73;10.40;;;;;;;-1.38;72.84;101254.30;1708327;84;21015;-75
2022/01/11 11:34:08;;;;;;;15.28;9.55;;;;;;;-1.39;73.09;101253.00;1708800;84;21496;-74